Tiempo atmosférico en la estación meteorológica de San Bartolome Tirajana, Las Tirajanas, Las Palmas (960 m.)



Fecha
DESCASC
Temp. máxima en grados centígrados (hora)
DESCASC
Temp. mínima en grados centígrados (hora)
DESCASC
Temp. media en grados centígrados
DESCASC
Racha de viento máxima en m/sg (hora)
DESCASC
Velocidad máxima media en intervalos de 10 minutos(hora)
DESCASC
Precipitaciones diarias en mm
DESCASC
Precipitaciones de 00:00 a 06:00 en mm
DESCASC
Precipitaciones de 06:00 a 12:00 en mm
DESCASC
Precipitaciones de 12:00 a 18:00 en mm
DESCASC
Precipitaciones de 18:00 a 24:00 en mm
DESCASC
20-09-2020 30.8 (13:20) 20.8 (00:10) 25.8 5.28 (15:30) 2.5 (13:50) 0 0 0 0 0
19-09-2020 30 (15:10) 18.7 (02:50) 24.4 5.83 (15:00) 2.5 (14:40) 0 0 0 0 0
18-09-2020 27.7 (13:50) 18.8 (09:00) 23.3 5.28 (13:50) 2.5 (01:10) 0 0 0 0 0
17-09-2020 30.6 (13:00) 22.7 (00:00) 26.7 5.28 (12:20) 3.06 (13:20) 0 0 0 0 0
16-09-2020 33 (14:20) 25 (00:00) 29 22.5 (01:20) 10.83 (00:30) 0 0 0 0 0
15-09-2020 32.7 (14:20) 21.6 (00:00) 27.2 20 (23:40) 10.83 (23:10) 0 0 0 0 0
14-09-2020 28.7 (15:40) 18.5 (00:00) 23.6 9.17 (23:59) 5.28 (23:59) 0 0 0 0 0
13-09-2020 24.4 (14:10) 17.2 (00:00) 20.8 8.89 (05:10) 4.17 (05:20) 0 0 0 0 0
12-09-2020 26.4 (13:10) 17.4 (00:00) 21.9 6.11 (17:40) 2.5 (04:50) 0 0 0 0 0
11-09-2020 31 (11:00) 22.6 (00:00) 26.8 9.72 (00:40) 2.78 (02:50) 0 0 0 0 0
10-09-2020 34.6 (12:10) 25.2 (00:00) 29.9 18.89 (02:30) 12.78 (03:40) 0 0 0 0 0
09-09-2020 34.4 (12:00) 28.5 (00:00) 31.5 21.94 (04:00) 15.28 (04:00) 0 0 0 0 0
08-09-2020 34.2 (15:30) 28.9 (00:00) 31.6 21.39 (06:20) 13.89 (06:00) 0 0 0 0 0
07-09-2020 36.4 (15:40) 23.3 (06:20) 29.9 15.83 (23:50) 10 (23:50) 0 0 0 0 0
06-09-2020 31 (14:30) 18.2 (00:00) 24.6 7.5 (07:10) 3.89 (07:10) 0 0 0 0 0
05-09-2020 32.6 (16:00) 22.1 (00:00) 27.3 8.89 (21:10) 5.83 (21:20) 0 0 0 0 0
04-09-2020 32 (12:50) 20.4 (00:00) 26.2 6.94 (20:10) 3.06 (17:30) 0 0 0 0 0
03-09-2020 31.5 (15:10) 20.6 (00:00) 26.1 5.83 (15:30) 3.06 (14:10) 0 0 0 0 0
02-09-2020 31.1 (13:30) 20.2 (00:00) 25.7 6.11 (13:00) 2.78 (13:10) 0 0 0 0 0
01-09-2020 27 (13:40) 14.4 (00:00) 20.7 5.83 (12:00) 2.78 (14:10) 0 0 0 0 0
31-08-2020 26.9 (14:50) 14.2 (00:00) 20.5 7.22 (14:30) 2.5 (15:50) 0 0 0 0 0
30-08-2020 25.3 (15:00) 15.1 (00:00) 20.2 13.61 (06:50) 7.78 (06:00) 0 0 0 0 0
29-08-2020 29.8 (00:10) 17.9 (00:00) 23.8 16.39 (01:20) 10 (00:10) 0 0 0 0 0
28-08-2020 36.5 (15:40) 29.6 (00:00) 33.1 24.72 (06:10) 16.11 (07:30) 0 0 0 0 0
27-08-2020 38 (13:30) 30.2 (00:00) 34.1 20.28 (14:20) 11.94 (15:30) 0 0 0 0 0
26-08-2020 38 (13:30) 30.8 (00:00) 34.4 15.56 (05:30) 8.33 (05:30) 0 0 0 0 0
25-08-2020 38.5 (16:30) 27.4 (00:00) 32.9 5.56 (17:50) 3.33 (10:00) 0 0 0 0 0
24-08-2020 38.9 (12:50) 27.8 (00:00) 33.4 7.78 (13:50) 3.89 (13:40) 0 0 0 0 0
23-08-2020 36 (12:10) 30 (00:00) 33 23.33 (04:00) 14.72 (03:10) 0 0 0 0 0

Gráficas

Temp. máximas Temp. mínimas Temp. medias Precipitaciones Rachas de viento máximas Velocidades máximas media en intervalos de 10 minutos

Datos horarios

Fecha y hora oficial Temperatura (ºC) Velocidad del viento (km/h) Dirección del viento Racha (km/h) Dirección de racha Precipitación (mm) Presión (hPa) Tendencia (hPa) Humedad (%)
2020-09-21 23:00:00 25.7 4 Sudeste 8 Sur 0 -- -- 45
2020-09-21 22:00:00 26.5 0 Calma 9 Este 0 -- -- 42
2020-09-21 21:00:00 28.8 5 Este 15 Nordeste 0 -- -- 24
2020-09-21 20:00:00 26 4 Oeste 9 Oeste 0 -- -- 44
2020-09-21 19:00:00 26.8 4 Este 9 Este 0 -- -- 41
2020-09-21 18:00:00 28.7 5 Este 12 Este 0 -- -- 39
2020-09-21 17:00:00 30.3 7 Este 18 Este 0 -- -- 40
2020-09-21 16:00:00 31.9 7 Este 15 Este 0 -- -- 39
2020-09-21 15:00:00 32 7 Este 17 Este 0 -- -- 39
2020-09-21 14:00:00 31.6 8 Este 18 Este 0 -- -- 39
2020-09-21 13:00:00 29.7 7 Este 18 Nordeste 0 -- -- 45
2020-09-21 12:00:00 27.6 5 Norte 16 Este 0 -- -- 39
2020-09-21 11:00:00 29.5 5 Este 13 Este 0 -- -- 31
2020-09-21 10:00:00 28 4 Este 11 Este 0 -- -- 29
2020-09-21 09:00:00 26.6 4 Norte 10 Sudeste 0 -- -- 28
2020-09-21 08:00:00 25.9 7 Sudoeste 17 Sudoeste 0 -- -- 27
2020-09-21 07:00:00 24.6 3 Noroeste 7 Sur 0 -- -- 31
2020-09-21 06:00:00 24.4 5 Sur 9 Sudeste 0 -- -- 35
2020-09-21 05:00:00 23.7 7 Noroeste 11 Noroeste 0 -- -- 39
2020-09-21 04:00:00 23.2 2 Norte 9 Noroeste 0 -- -- 45
2020-09-21 03:00:00 22.8 3 Sudoeste 6 Oeste 0 -- -- 54
2020-09-21 02:00:00 23 2 Nordeste 7 Oeste 0 -- -- 59
2020-09-21 01:00:00 23.2 2 Oeste 5 Oeste 0 -- -- 58
2020-09-21 00:00:00 23.6 0 Calma 9 Noroeste 0 -- -- 56
2020-09-20 23:00:00 22.9 0 Calma 7 Oeste 0 -- -- 66
2020-09-20 22:00:00 23.1 4 Sudoeste 7 Sudoeste 0 -- -- 64
2020-09-20 21:00:00 23.4 5 Sudoeste 9 Oeste 0 -- -- 64
2020-09-20 20:00:00 23.1 4 Este 8 Este 0 -- -- 67
2020-09-20 19:00:00 25.8 5 Nordeste 9 Este 0 -- -- 57
2020-09-20 18:00:00 27.9 5 Este 12 Nordeste 0 -- -- 49
2020-09-20 17:00:00 28.9 6 Este 16 Este 0 -- -- 47
2020-09-20 16:00:00 30 8 Este 19 Sudeste 0 -- -- 45
2020-09-20 15:00:00 30.5 8 Este 17 Este 0 -- -- 43
2020-09-20 14:00:00 30.3 7 Este 17 Este 0 -- -- 41
2020-09-20 13:00:00 29.9 6 Este 15 Este 0 -- -- 36
2020-09-20 12:00:00 30 8 Este 15 Este 0 -- -- 30
2020-09-20 11:00:00 28.5 6 Este 10 Este 0 -- -- 33
2020-09-20 10:00:00 28.2 5 Este 11 Este 0 -- -- 25
2020-09-20 09:00:00 25.3 0 Calma 9 Noroeste 0 -- -- 24
2020-09-20 08:00:00 22.9 5 Oeste 6 Oeste 0 -- -- 27
2020-09-20 07:00:00 23.1 3 Sudeste 6 Este 0 -- -- 32
2020-09-20 06:00:00 22.8 3 Oeste 6 Noroeste 0 -- -- 28
2020-09-20 05:00:00 22.3 3 Sudoeste 4 Oeste 0 -- -- 36
2020-09-20 04:00:00 22.2 2 Oeste 8 Noroeste 0 -- -- 33
2020-09-20 03:00:00 22.2 4 Este 11 Sudoeste 0 -- -- 54
2020-09-20 02:00:00 22.4 4 Este 9 Oeste 0 -- -- 51
2020-09-20 01:00:00 22.5 5 Oeste 9 Oeste 0 -- -- 49
2020-09-20 00:00:00 21.6 3 Norte 8 Este 0 -- -- 64
2020-09-19 23:00:00 23.3 5 Oeste 10 Oeste 0 -- -- 52
2020-09-19 22:00:00 21.8 4 Oeste 7 Oeste 0 -- -- 63
2020-09-19 21:00:00 24.5 3 Sudeste 8 Sudeste 0 -- -- 56
2020-09-19 20:00:00 23.8 2 Oeste 5 Sudeste 0 -- -- 59
2020-09-19 19:00:00 23.9 3 Este 8 Este 0 -- -- 59
2020-09-19 18:00:00 25.6 4 Sudeste 13 Este 0 -- -- 53
2020-09-19 17:00:00 27.1 6 Este 18 Sudeste 0 -- -- 48
2020-09-19 16:00:00 28.6 8 Este 17 Sudeste 0 -- -- 47
2020-09-19 15:00:00 29.8 6 Este 21 Sudeste 0 -- -- 43
2020-09-19 14:00:00 28.3 9 Este 17 Este 0 -- -- 45
2020-09-19 13:00:00 28.3 9 Este 18 Este 0 -- -- 43
2020-09-19 12:00:00 28.2 8 Este 15 Este 0 -- -- 39
2020-09-19 11:00:00 27 6 Este 12 Este 0 -- -- 40
2020-09-19 10:00:00 26 4 Este 8 Este 0 -- -- 41
2020-09-19 09:00:00 22.5 3 Norte 5 Sudeste 0 -- -- 42
2020-09-19 08:00:00 20 0 Calma 6 Oeste 0 -- -- 45
2020-09-19 07:00:00 19.6 0 Calma 9 Noroeste 0 -- -- 53
2020-09-19 06:00:00 19.3 4 Oeste 6 Oeste 0 -- -- 64
2020-09-19 05:00:00 19.9 2 Sudeste 6 Sudeste 0 -- -- 66
2020-09-19 04:00:00 19.3 7 Noroeste 12 Noroeste 0 -- -- 61
2020-09-19 03:00:00 19.3 7 Noroeste 11 Noroeste 0 -- -- 67
2020-09-19 02:00:00 19.6 2 Norte 6 Oeste 0 -- -- 72
2020-09-19 01:00:00 19.2 4 Noroeste 12 Noroeste 0 -- -- 75
2020-09-19 00:00:00 19.9 6 Noroeste 9 Noroeste 0 -- -- 71
2020-09-18 23:00:00 19.9 3 Norte 9 Noroeste 0 -- -- 73
2020-09-18 22:00:00 19.8 2 Noroeste 6 Oeste 0 -- -- 75
2020-09-18 21:00:00 19.7 5 Oeste 9 Oeste 0 -- -- 78
2020-09-18 20:00:00 20.7 3 Sudeste 9 Sudeste 0 -- -- 73
2020-09-18 19:00:00 22.3 5 Este 12 Sudeste 0 -- -- 67
2020-09-18 18:00:00 24.7 5 Este 14 Este 0 -- -- 62
2020-09-18 17:00:00 26.5 5 Sudeste 18 Sudeste 0 -- -- 58
2020-09-18 16:00:00 27.3 6 Este 19 Este 0 -- -- 54
2020-09-18 15:00:00 26.9 9 Este 18 Sudeste 0 -- -- 55
2020-09-18 14:00:00 27.5 6 Sur 19 Sudeste 0 -- -- 53
2020-09-18 13:00:00 26.8 8 Este 19 Este 0 -- -- 54
2020-09-18 12:00:00 26.5 8 Este 16 Este 0 -- -- 55
2020-09-18 11:00:00 24 5 Nordeste 10 Este 0 -- -- 57
2020-09-18 10:00:00 20.8 4 Este 7 Este 0 -- -- 69
2020-09-18 09:00:00 18.8 2 Sudoeste 6 Este 0 -- -- 67
2020-09-18 08:00:00 19.6 3 Noroeste 6 Oeste 0 -- -- 59
2020-09-18 07:00:00 20.4 2 Sudoeste 5 Oeste 0 -- -- 59
2020-09-18 06:00:00 20.4 3 Sudoeste 10 Noroeste 0 -- -- 62
2020-09-18 05:00:00 21.8 4 Este 15 Noroeste 0 -- -- 56
2020-09-18 04:00:00 21.6 0 Calma 7 Este 0 -- -- 65
2020-09-18 03:00:00 22.8 5 Oeste 8 Noroeste 0 -- -- 51
2020-09-18 02:00:00 23.9 3 Oeste 13 Oeste 0 -- -- 46
2020-09-18 01:00:00 24.2 6 Noroeste 13 Sudeste 0 -- -- 48
2020-09-18 00:00:00 24.3 6 Oeste 10 Noroeste 0 -- -- 45
2020-09-17 23:00:00 24.3 6 Noroeste 9 Noroeste 0 -- -- 52
2020-09-17 22:00:00 25.1 3 Nordeste 10 Sudeste 0 -- -- 53
2020-09-17 21:00:00 24.9 5 Oeste 9 Este 0 -- -- 55
2020-09-17 20:00:00 25.9 4 Este 10 Este 0 -- -- 50
2020-09-17 19:00:00 27 3 Este 12 Este 0 -- -- 51
2020-09-17 18:00:00 28.3 5 Este 17 Este 0 -- -- 45
2020-09-17 17:00:00 29.4 6 Este 18 Sudeste 0 -- -- 44
2020-09-17 16:00:00 29.9 4 Este 18 Sudeste 0 -- -- 46
2020-09-17 15:00:00 29.3 8 Este 19 Este 0 -- -- 48
2020-09-17 14:00:00 29.5 8 Este 19 Este 0 -- -- 48
2020-09-17 13:00:00 30.6 6 Este 19 Este 0 -- -- 42
2020-09-17 12:00:00 29.5 5 Este 13 Sudeste 0 -- -- 37
2020-09-17 11:00:00 29 7 Este 13 Este 0 -- -- 34
2020-09-17 10:00:00 25.6 2 Oeste 9 Este 0 -- -- 37
2020-09-17 09:00:00 24.5 6 Sudeste 10 Sudeste 0 -- -- 38
2020-09-17 08:00:00 22.7 6 Oeste 9 Oeste 0 -- -- 42
2020-09-17 07:00:00 23.3 2 Nordeste 7 Sudoeste 0 -- -- 42
2020-09-17 06:00:00 24.2 3 Nordeste 7 Este 0 -- -- 38
2020-09-17 05:00:00 24.9 3 Oeste 9 Sur 0 -- -- 36
2020-09-17 04:00:00 25.9 5 Noroeste 18 Oeste 0 -- -- 33
2020-09-17 03:00:00 26.1 3 Sudeste 11 Sudoeste 0 -- -- 34
2020-09-17 02:00:00 25.8 8 Sudoeste 10 Sudoeste 0 -- -- 34
2020-09-17 01:00:00 25.9 4 Noroeste 7 Noroeste 0 -- -- 34
2020-09-17 00:00:00 25.7 6 Oeste 9 Noroeste 0 -- -- 36
2020-09-16 23:00:00 25.9 4 Sudoeste 6 Sur 0 -- -- 35
2020-09-16 22:00:00 26 3 Oeste 12 Este 0 -- -- 36
2020-09-16 21:00:00 25.1 3 Este 7 Noroeste 0 -- -- 41
2020-09-16 20:00:00 25.1 2 Nordeste 8 Sudeste 0 -- -- 41
2020-09-16 19:00:00 26.4 4 Este 16 Sudoeste 0 -- -- 39
2020-09-16 18:00:00 28.3 5 Sur 13 Este 0 -- -- 35
2020-09-16 17:00:00 30.5 5 Este 18 Sudeste 0 -- -- 31
2020-09-16 16:00:00 31.6 6 Sudeste 20 Este 0 -- -- 31
2020-09-16 15:00:00 31.6 7 Este 17 Este 0 -- -- 29
2020-09-16 14:00:00 32 5 Este 18 Este 0 -- -- 29
2020-09-16 13:00:00 29.6 5 Este 17 Noroeste 0 -- -- 33
2020-09-16 12:00:00 26.7 5 Oeste 35 Nordeste 0 -- -- 37
2020-09-16 11:00:00 26.5 17 Nordeste 41 Nordeste 0 -- -- 36
2020-09-16 10:00:00 26.2 24 Norte 54 Norte 0 -- -- 36
2020-09-16 09:00:00 25.5 15 Norte 51 Norte 0 -- -- 36
2020-09-16 08:00:00 25.6 27 Norte 54 Nordeste 0 -- -- 36
2020-09-16 07:00:00 25.7 31 Norte 60 Nordeste 0 -- -- 35
2020-09-16 06:00:00 25.6 33 Norte 55 Nordeste 0 -- -- 34
2020-09-16 05:00:00 25.2 31 Norte 63 Nordeste 0 -- -- 36
2020-09-16 04:00:00 26.3 30 Norte 70 Nordeste 0 -- -- 33
2020-09-16 03:00:00 25.8 30 Norte 60 Norte 0 -- -- 34
2020-09-16 02:00:00 26.3 36 Norte 81 Nordeste 0 -- -- 33
2020-09-16 01:00:00 26.4 38 Norte 68 Nordeste 0 -- -- 31
2020-09-16 00:00:00 26.2 36 Norte 72 Norte 0 -- -- 31
2020-09-15 23:00:00 26.1 38 Norte 70 Noroeste 0 -- -- 30
2020-09-15 22:00:00 26.2 35 Norte 64 Norte 0 -- -- 32
2020-09-15 21:00:00 26.8 32 Norte 66 Norte 0 -- -- 32
2020-09-15 20:00:00 27.5 35 Norte 63 Norte 0 -- -- 30
2020-09-15 19:00:00 28.4 21 Norte 58 Norte 0 -- -- 29
2020-09-15 18:00:00 29.5 22 Norte 42 Norte 0 -- -- 27
2020-09-15 17:00:00 29.6 5 Este 15 Sudeste 0 -- -- 38
2020-09-15 16:00:00 28.5 5 Este 13 Nordeste 0 -- -- 43
2020-09-15 15:00:00 29.4 4 Este 15 Este 0 -- -- 40
2020-09-15 14:00:00 32.2 5 Sudeste 39 Norte 0 -- -- 24
2020-09-15 13:00:00 29.3 9 Norte 19 Noroeste 0 -- -- 25
2020-09-15 12:00:00 27.2 9 Este 31 Norte 0 -- -- 39
2020-09-15 11:00:00 29.3 5 Este 27 Nordeste 0 -- -- 26
2020-09-15 10:00:00 28.4 5 Sudoeste 18 Sudeste 0 -- -- 28
2020-09-15 09:00:00 27.2 9 Oeste 15 Oeste 0 -- -- 28
2020-09-15 08:00:00 25.3 5 Este 10 Noroeste 0 -- -- 32
2020-09-15 07:00:00 22.8 2 Oeste 14 Este 0 -- -- 40
2020-09-15 06:00:00 26.4 3 Sur 12 Norte 0 -- -- 31
2020-09-15 05:00:00 26.6 4 Sur 29 Noroeste 0 -- -- 30
2020-09-15 04:00:00 21.6 6 Oeste 9 Oeste 0 -- -- 47
2020-09-15 03:00:00 22.5 7 Sudoeste 11 Nordeste 0 -- -- 46
2020-09-15 02:00:00 28.6 6 Noroeste 30 Oeste 0 -- -- 27
2020-09-15 01:00:00 28.7 18 Noroeste 32 Noroeste 0 -- -- 25
2020-09-15 00:00:00 25.8 19 Oeste 33 Oeste 0 -- -- 21
2020-09-14 23:00:00 24.3 3 Sudeste 11 Sudeste 0 -- -- 54
2020-09-14 22:00:00 25.2 3 Oeste 17 Oeste 0 -- -- 47
2020-09-14 21:00:00 26.2 11 Oeste 18 Oeste 0 -- -- 25
2020-09-14 20:00:00 23.7 3 Este 10 Este 0 -- -- 59
2020-09-14 19:00:00 25.4 3 Este 11 Este 0 -- -- 49
2020-09-14 18:00:00 27.6 6 Este 13 Este 0 -- -- 46
2020-09-14 17:00:00 28.3 4 Este 15 Este 0 -- -- 44
2020-09-14 16:00:00 28.3 5 Sudeste 16 Nordeste 0 -- -- 46
2020-09-14 15:00:00 28 6 Este 18 Sudeste 0 -- -- 46
2020-09-14 14:00:00 28.4 6 Este 21 Este 0 -- -- 46
2020-09-14 13:00:00 28 8 Este 18 Este 0 -- -- 47
2020-09-14 12:00:00 27.4 8 Este 16 Este 0 -- -- 45
2020-09-14 11:00:00 24.9 6 Este 13 Este 0 -- -- 49
2020-09-14 10:00:00 22.7 3 Nordeste 12 Este 0 -- -- 55
2020-09-14 09:00:00 20.6 2 Norte 12 Sudeste 0 -- -- 63
2020-09-14 08:00:00 19.6 9 Oeste 15 Noroeste 0 -- -- 40
2020-09-14 07:00:00 19.3 2 Nordeste 13 Oeste 0 -- -- 58
2020-09-14 06:00:00 18.6 0 Calma 8 Sudeste 0 -- -- 66
2020-09-14 05:00:00 18.6 7 Noroeste 12 Noroeste 0 -- -- 70
2020-09-14 04:00:00 20.1 4 Este 12 Noroeste 0 -- -- 64
2020-09-14 03:00:00 23.2 11 Noroeste 20 Oeste 0 -- -- 26
2020-09-14 02:00:00 22.1 11 Oeste 23 Oeste 0 -- -- 32
2020-09-14 01:00:00 21.5 8 Oeste 19 Oeste 0 -- -- 36
2020-09-14 00:00:00 22.6 3 Noroeste 24 Oeste 0 -- -- 56
2020-09-13 23:00:00 20.6 10 Oeste 17 Oeste 0 -- -- 48
2020-09-13 22:00:00 19.8 5 Sudeste 20 Noroeste 0 -- -- 79
2020-09-13 21:00:00 21.4 8 Noroeste 23 Noroeste 0 -- -- 47
2020-09-13 20:00:00 19.3 3 Nordeste 10 Este 0 -- -- 88
2020-09-13 19:00:00 21.4 4 Sudeste 12 Este 0 -- -- 78
2020-09-13 18:00:00 22.9 4 Este 13 Sur 0 -- -- 72
2020-09-13 17:00:00 23.5 5 Este 21 Este 0 -- -- 67
2020-09-13 16:00:00 21.8 7 Nordeste 14 Este 0 -- -- 73
2020-09-13 15:00:00 20.3 2 Sudeste 23 Norte 0 -- -- 83
2020-09-13 14:00:00 23.5 5 Nordeste 23 Noroeste 0 -- -- 64
2020-09-13 13:00:00 22.9 5 Este 14 Este 0 -- -- 67
2020-09-13 12:00:00 21.6 5 Noroeste 13 Este 0 -- -- 60
2020-09-13 11:00:00 20.1 7 Este 13 Este 0 -- -- 78
2020-09-13 10:00:00 21.6 4 Noroeste 20 Noroeste 0 -- -- 56
2020-09-13 09:00:00 18.6 3 Noroeste 8 Oeste 0 -- -- 69
2020-09-13 08:00:00 17.8 6 Este 16 Noroeste 0 -- -- 81
2020-09-13 07:00:00 18 2 Sudoeste 7 Sudoeste 0 -- -- 69
2020-09-13 06:00:00 17.5 3 Este 32 Noroeste 0 -- -- 85
2020-09-13 05:00:00 19.8 11 Noroeste 21 Noroeste 0 -- -- 58
2020-09-13 04:00:00 20.1 6 Oeste 18 Oeste 0 -- -- 57
2020-09-13 03:00:00 17.4 4 Este 24 Noroeste 0 -- -- 88
2020-09-13 02:00:00 18.9 10 Noroeste 28 Oeste 0 -- -- 59
2020-09-13 01:00:00 17.7 5 Sudoeste 11 Sudoeste 0 -- -- 85
2020-09-13 00:00:00 17.8 3 Sudeste 8 Noroeste 0 -- -- 86
2020-09-12 23:00:00 17.7 3 Sudoeste 6 Sudoeste 0 -- -- 89
2020-09-12 22:00:00 17.7 3 Este 9 Este 0 -- -- 89
2020-09-12 21:00:00 18.5 4 Este 8 Este 0 -- -- 86
2020-09-12 20:00:00 19.4 4 Sudeste 10 Este 0 -- -- 83
2020-09-12 19:00:00 20.8 4 Este 13 Sudeste 0 -- -- 75
2020-09-12 18:00:00 23.5 6 Este 22 Este 0 -- -- 65
2020-09-12 17:00:00 24.2 4 Este 14 Este 0 -- -- 63
2020-09-12 16:00:00 23.3 8 Este 17 Este 0 -- -- 67
2020-09-12 15:00:00 24.6 7 Este 18 Sudeste 0 -- -- 62
2020-09-12 14:00:00 24.9 6 Este 20 Este 0 -- -- 59
2020-09-12 13:00:00 26.1 8 Este 18 Sudeste 0 -- -- 55
2020-09-12 12:00:00 25.2 8 Este 18 Este 0 -- -- 55
2020-09-12 11:00:00 23.3 6 Este 13 Este 0 -- -- 58
2020-09-12 10:00:00 24.6 5 Este 8 Nordeste 0 -- -- 40
2020-09-12 09:00:00 20.5 0 Calma 8 Sudoeste 0 -- -- 54
2020-09-12 08:00:00 18.3 3 Oeste 6 Oeste 0 -- -- 64
2020-09-12 07:00:00 20.3 4 Oeste 6 Sudoeste 0 -- -- 48
2020-09-12 06:00:00 20.7 3 Nordeste 8 Noroeste 0 -- -- 48
2020-09-12 05:00:00 20.6 5 Norte 13 Noroeste 0 -- -- 49
2020-09-12 04:00:00 21 3 Nordeste 8 Noroeste 0 -- -- 45
2020-09-12 03:00:00 22.2 4 Sur 8 Oeste 0 -- -- 44
2020-09-12 02:00:00 23 3 Este 10 Noroeste 0 -- -- 42
2020-09-12 01:00:00 23.1 3 Oeste 8 Sudoeste 0 -- -- 41
2020-09-12 00:00:00 23.4 4 Oeste 8 Noroeste 0 -- -- 43
2020-09-11 23:00:00 23.3 3 Noroeste 7 Noroeste 0 -- -- 47
2020-09-11 22:00:00 23.3 0 Calma 5 Oeste 0 -- -- 52
2020-09-11 21:00:00 23 0 Calma 8 Este 0 -- -- 57
2020-09-11 20:00:00 24.4 4 Sudeste 10 Este 0 -- -- 57
2020-09-11 19:00:00 25.8 4 Este 12 Este 0 -- -- 52
2020-09-11 18:00:00 28.1 6 Este 18 Este 0 -- -- 46
2020-09-11 17:00:00 29.1 7 Este 18 Este 0 -- -- 38
2020-09-11 16:00:00 29.7 5 Este 16 Sudeste 0 -- -- 45
2020-09-11 15:00:00 28.8 8 Este 17 Este 0 -- -- 46
2020-09-11 14:00:00 27.8 9 Este 17 Sudeste 0 -- -- 49
2020-09-11 13:00:00 27.7 5 Este 15 Sudeste 0 -- -- 45
2020-09-11 12:00:00 29.4 6 Este 15 Este 0 -- -- 37
2020-09-11 11:00:00 31 8 Este 17 Este 0 -- -- 28
2020-09-11 10:00:00 28.3 4 Nordeste 9 Nordeste 0 -- -- 26
2020-09-11 09:00:00 24.8 2 Nordeste 6 Este 0 -- -- 30
2020-09-11 08:00:00 23.9 4 Sudeste 7 Sudeste 0 -- -- 31
2020-09-11 07:00:00 25.2 3 Sudoeste 7 Este 0 -- -- 26
2020-09-11 06:00:00 24.8 3 Este 9 Norte 0 -- -- 30
2020-09-11 05:00:00 25.7 3 Sudeste 15 Norte 0 -- -- 29
2020-09-11 04:00:00 26.3 5 Este 27 Nordeste 0 -- -- 29
2020-09-11 03:00:00 26.2 9 Nordeste 28 Nordeste 0 -- -- 29
2020-09-11 02:00:00 25.7 3 Sudeste 21 Noroeste 0 -- -- 30
2020-09-11 01:00:00 26.2 5 Norte 35 Norte 0 -- -- 27
2020-09-11 00:00:00 25.5 6 Oeste 39 Norte 0 -- -- 37
2020-09-10 23:00:00 27.9 15 Norte 47 Nordeste 0 -- -- 29
2020-09-10 22:00:00 28 8 Norte 33 Norte 0 -- -- 24
2020-09-10 21:00:00 27.9 5 Sur 13 Este 0 -- -- 24
2020-09-10 20:00:00 28.1 5 Sudeste 14 Sudeste 0 -- -- 30
2020-09-10 19:00:00 25.9 4 Este 14 Nordeste 0 -- -- 58
2020-09-10 18:00:00 28.4 6 Este 18 Este 0 -- -- 47
2020-09-10 17:00:00 31.4 7 Este 17 Este 0 -- -- 42
2020-09-10 16:00:00 33.6 4 Este 20 Sudeste 0 -- -- 37
2020-09-10 15:00:00 32.6 9 Este 17 Este 0 -- -- 37
2020-09-10 14:00:00 31.2 9 Este 22 Este 0 -- -- 39
2020-09-10 13:00:00 33.2 8 Este 18 Este 0 -- -- 35
2020-09-10 12:00:00 33.6 8 Sudeste 23 Norte 0 -- -- 21
2020-09-10 11:00:00 31.5 6 Este 16 Este 0 -- -- 25
2020-09-10 10:00:00 30.1 5 Sudeste 45 Nordeste 0 -- -- 24
2020-09-10 09:00:00 30.3 21 Nordeste 49 Nordeste 0 -- -- 20
2020-09-10 08:00:00 28.5 27 Nordeste 55 Nordeste 0 -- -- 22
2020-09-10 07:00:00 28.5 30 Norte 63 Nordeste 0 -- -- 21
2020-09-10 06:00:00 28.9 31 Nordeste 60 Nordeste 0 -- -- 20
2020-09-10 05:00:00 28.2 34 Nordeste 67 Nordeste 0 -- -- 20
2020-09-10 04:00:00 27.8 42 Nordeste 67 Nordeste 0 -- -- 18
2020-09-10 03:00:00 27.9 43 Nordeste 68 Nordeste 0 -- -- 19
2020-09-10 02:00:00 28.3 36 Nordeste 62 Nordeste 0 -- -- 18
2020-09-10 01:00:00 28.4 36 Nordeste 58 Nordeste 0 -- -- 17
2020-09-10 00:00:00 28.5 35 Nordeste 59 Nordeste 0 -- -- 17
2020-09-09 23:00:00 28.8 32 Nordeste 58 Nordeste 0 -- -- 16
2020-09-09 22:00:00 29.1 23 Nordeste 46 Nordeste 0 -- -- 16
2020-09-09 21:00:00 29.5 20 Nordeste 46 Nordeste 0 -- -- 19
2020-09-09 20:00:00 29.8 18 Nordeste 40 Nordeste 0 -- -- 18
2020-09-09 19:00:00 30.7 17 Nordeste 38 Nordeste 0 -- -- 17
2020-09-09 18:00:00 32.1 17 Nordeste 34 Nordeste 0 -- -- 16
2020-09-09 17:00:00 32.9 19 Nordeste 45 Nordeste 0 -- -- 14
2020-09-09 16:00:00 33.4 21 Nordeste 44 Nordeste 0 -- -- 15
2020-09-09 15:00:00 33.9 20 Nordeste 52 Nordeste 0 -- -- 15
2020-09-09 14:00:00 33.7 22 Nordeste 46 Nordeste 0 -- -- 14
2020-09-09 13:00:00 33.7 27 Nordeste 50 Nordeste 0 -- -- 13
2020-09-09 12:00:00 34.4 15 Nordeste 41 Nordeste 0 -- -- 14
2020-09-09 11:00:00 33.3 12 Norte 36 Noroeste 0 -- -- 14
2020-09-09 10:00:00 32.4 14 Norte 34 Norte 0 -- -- 15
2020-09-09 09:00:00 30.8 30 Nordeste 64 Nordeste 0 -- -- 15
2020-09-09 08:00:00 29.5 35 Nordeste 62 Nordeste 0 -- -- 14
2020-09-09 07:00:00 29.7 36 Nordeste 68 Nordeste 0 -- -- 13
2020-09-09 06:00:00 29.6 38 Nordeste 77 Nordeste 0 -- -- 13
2020-09-09 05:00:00 29.4 48 Nordeste 73 Nordeste 0 -- -- 13
2020-09-09 04:00:00 29.4 55 Nordeste 79 Nordeste 0 -- -- 13
2020-09-09 03:00:00 28.9 37 Nordeste 64 Nordeste 0 -- -- 15
2020-09-09 02:00:00 29.1 36 Nordeste 59 Nordeste 0 -- -- 14
2020-09-09 01:00:00 29.2 33 Nordeste 56 Nordeste 0 -- -- 14
2020-09-09 00:00:00 29.5 24 Nordeste 57 Nordeste 0 -- -- 14
2020-09-08 23:00:00 29.8 29 Nordeste 54 Nordeste 0 -- -- 13
2020-09-08 22:00:00 30.3 30 Nordeste 48 Norte 0 -- -- 13
2020-09-08 21:00:00 30.2 29 Nordeste 48 Nordeste 0 -- -- 12
2020-09-08 20:00:00 30.9 24 Nordeste 42 Nordeste 0 -- -- 11
2020-09-08 19:00:00 31.9 19 Nordeste 44 Nordeste 0 -- -- 10
2020-09-08 18:00:00 33.2 14 Nordeste 44 Nordeste 0 -- -- 10
2020-09-08 17:00:00 33.5 26 Nordeste 48 Nordeste 0 -- -- 12
2020-09-08 16:00:00 33.8 20 Nordeste 56 Nordeste 0 -- -- 12
2020-09-08 15:00:00 33.4 34 Nordeste 64 Nordeste 0 -- -- 13
2020-09-08 14:00:00 32.9 45 Nordeste 67 Nordeste 0 -- -- 15
2020-09-08 13:00:00 33.4 38 Nordeste 66 Nordeste 0 -- -- 15
2020-09-08 12:00:00 33.3 34 Nordeste 69 Nordeste 0 -- -- 16
2020-09-08 11:00:00 32.3 37 Nordeste 68 Nordeste 0 -- -- 17
2020-09-08 10:00:00 31.2 38 Nordeste 68 Nordeste 0 -- -- 17
2020-09-08 09:00:00 30 35 Nordeste 70 Nordeste 0 -- -- 17
2020-09-08 08:00:00 29 41 Nordeste 70 Nordeste 0 -- -- 16
2020-09-08 07:00:00 29 39 Nordeste 77 Nordeste 0 -- -- 19
2020-09-08 06:00:00 29.3 50 Nordeste 74 Nordeste 0 -- -- 19
2020-09-08 05:00:00 29 42 Nordeste 76 Nordeste 0 -- -- 21
2020-09-08 04:00:00 29 42 Nordeste 73 Nordeste 0 -- -- 23
2020-09-08 03:00:00 29.1 41 Nordeste 68 Nordeste 0 -- -- 22
2020-09-08 02:00:00 29.3 35 Nordeste 59 Nordeste 0 -- -- 19
2020-09-08 01:00:00 29.3 34 Nordeste 55 Nordeste 0 -- -- 21
2020-09-08 00:00:00 29.5 32 Nordeste 57 Nordeste 0 -- -- 21
2020-09-07 23:00:00 30 33 Nordeste 53 Norte 0 -- -- 19
2020-09-07 22:00:00 29.7 28 Nordeste 49 Norte 0 -- -- 22
2020-09-07 21:00:00 29.6 8 Sur 21 Sudeste 0 -- -- 27
2020-09-07 20:00:00 30.3 9 Este 25 Este 0 -- -- 27
2020-09-07 19:00:00 30.8 3 Este 10 Sudeste 0 -- -- 32
2020-09-07 18:00:00 31.6 5 Este 12 Sur 0 -- -- 32
2020-09-07 17:00:00 33.8 4 Sudeste 16 Sur 0 -- -- 27
2020-09-07 16:00:00 36.3 7 Sudeste 23 Sudeste 0 -- -- 25
2020-09-07 15:00:00 35 5 Este 27 Sudeste 0 -- -- 27
2020-09-07 14:00:00 34.2 5 Sudeste 19 Este 0 -- -- 30
2020-09-07 13:00:00 36.1 9 Este 19 Este 0 -- -- 25
2020-09-07 12:00:00 33.3 5 Este 15 Este 0 -- -- 27
2020-09-07 11:00:00 31.4 5 Este 13 Este 0 -- -- 29
2020-09-07 10:00:00 30.6 6 Este 16 Este 0 -- -- 29
2020-09-07 09:00:00 25.2 0 Calma 9 Sudoeste 0 -- -- 36
2020-09-07 08:00:00 24.1 6 Sudoeste 10 Sudeste 0 -- -- 34
2020-09-07 07:00:00 24 3 Sudoeste 15 Oeste 0 -- -- 34
2020-09-07 06:00:00 24.1 6 Sudeste 16 Sudeste 0 -- -- 39
2020-09-07 05:00:00 24.3 4 Sur 17 Noroeste 0 -- -- 33
2020-09-07 04:00:00 27.1 12 Oeste 27 Oeste 0 -- -- 31
2020-09-07 03:00:00 25.3 9 Noroeste 12 Oeste 0 -- -- 36
2020-09-07 02:00:00 24.2 4 Noroeste 6 Noroeste 0 -- -- 43
2020-09-07 01:00:00 25.2 4 Este 8 Noroeste 0 -- -- 42
2020-09-07 00:00:00 25.3 3 Este 7 Sudoeste 0 -- -- 46
2020-09-06 23:00:00 25.2 2 Norte 10 Noroeste 0 -- -- 51
2020-09-06 22:00:00 24.8 5 Oeste 7 Oeste 0 -- -- 47
2020-09-06 21:00:00 24.8 5 Oeste 7 Oeste 0 -- -- 56
2020-09-06 20:00:00 24.1 2 Sudeste 12 Sudeste 0 -- -- 63
2020-09-06 19:00:00 25.9 3 Nordeste 12 Este 0 -- -- 57
2020-09-06 18:00:00 27.7 5 Este 18 Este 0 -- -- 52
2020-09-06 17:00:00 28.7 5 Este 19 Sudeste 0 -- -- 48
2020-09-06 16:00:00 30.2 8 Este 17 Este 0 -- -- 44
2020-09-06 15:00:00 30.3 5 Este 22 Este 0 -- -- 40
2020-09-06 14:00:00 30.2 7 Este 18 Sudeste 0 -- -- 40
2020-09-06 13:00:00 29.4 8 Este 18 Este 0 -- -- 37
2020-09-06 12:00:00 29.4 9 Este 20 Este 0 -- -- 33
2020-09-06 11:00:00 27.1 6 Este 16 Este 0 -- -- 30
2020-09-06 10:00:00 24.5 3 Noroeste 10 Este 0 -- -- 43
2020-09-06 09:00:00 21.2 3 Noroeste 18 Sudoeste 0 -- -- 52
2020-09-06 08:00:00 19.2 8 Sudoeste 27 Oeste 0 -- -- 66
2020-09-06 07:00:00 18.2 8 Noroeste 18 Oeste 0 -- -- 74
2020-09-06 06:00:00 22.2 6 Sudoeste 25 Oeste 0 -- -- 42
2020-09-06 05:00:00 20 2 Sudeste 19 Oeste 0 -- -- 67
2020-09-06 04:00:00 20.7 3 Nordeste 15 Oeste 0 -- -- 62
2020-09-06 03:00:00 19.4 4 Noroeste 11 Sudeste 0 -- -- 71
2020-09-06 02:00:00 19.4 4 Oeste 12 Sudeste 0 -- -- 73
2020-09-06 01:00:00 22.9 5 Sudeste 17 Noroeste 0 -- -- 55
2020-09-06 00:00:00 25.9 9 Noroeste 19 Noroeste 0 -- -- 27
2020-09-05 23:00:00 24.4 4 Nordeste 19 Oeste 0 -- -- 49
2020-09-05 22:00:00 26.5 10 Oeste 32 Oeste 0 -- -- 35
2020-09-05 21:00:00 26.6 20 Oeste 30 Oeste 0 -- -- 34
2020-09-05 20:00:00 24.3 7 Noroeste 22 Noroeste 0 -- -- 49
2020-09-05 19:00:00 27.2 5 Nordeste 22 Noroeste 0 -- -- 50
2020-09-05 18:00:00 26.7 5 Este 24 Nordeste 0 -- -- 53
2020-09-05 17:00:00 30.6 6 Este 22 Sudeste 0 -- -- 34
2020-09-05 16:00:00 32.6 6 Sudoeste 22 Sur 0 -- -- 24
2020-09-05 15:00:00 32.1 7 Nordeste 19 Sudeste 0 -- -- 25
2020-09-05 14:00:00 30.1 7 Este 16 Este 0 -- -- 44
2020-09-05 13:00:00 29.4 6 Este 18 Sudeste 0 -- -- 48
2020-09-05 12:00:00 26.5 4 Norte 24 Este 0 -- -- 54
2020-09-05 11:00:00 26 9 Este 17 Este 0 -- -- 55
2020-09-05 10:00:00 26 5 Este 12 Este 0 -- -- 40
2020-09-05 09:00:00 24.4 6 Noroeste 12 Oeste 0 -- -- 32
2020-09-05 08:00:00 23.4 5 Este 10 Sudeste 0 -- -- 33
2020-09-05 07:00:00 23.5 6 Sudoeste 14 Noroeste 0 -- -- 32
2020-09-05 06:00:00 22.1 10 Noroeste 14 Noroeste 0 -- -- 36
2020-09-05 05:00:00 23.4 3 Sur 7 Este 0 -- -- 34
2020-09-05 04:00:00 24 3 Sur 11 Noroeste 0 -- -- 31
2020-09-05 03:00:00 24.1 3 Sur 7 Norte 0 -- -- 32
2020-09-05 02:00:00 24.6 4 Sudoeste 9 Sudoeste 0 -- -- 31
2020-09-05 01:00:00 24 3 Este 12 Este 0 -- -- 35
2020-09-05 00:00:00 23.2 4 Este 12 Sudeste 0 -- -- 40
2020-09-04 23:00:00 23.6 3 Oeste 13 Sudeste 0 -- -- 45
2020-09-04 22:00:00 23.6 4 Sudeste 17 Sudeste 0 -- -- 43
2020-09-04 21:00:00 23.5 5 Oeste 25 Norte 0 -- -- 55
2020-09-04 20:00:00 24.4 5 Norte 13 Este 0 -- -- 55
2020-09-04 19:00:00 25 5 Sudeste 15 Sudeste 0 -- -- 59
2020-09-04 18:00:00 27.4 9 Este 22 Sudeste 0 -- -- 51
2020-09-04 17:00:00 29.5 6 Sudeste 19 Este 0 -- -- 45
2020-09-04 16:00:00 31 6 Este 19 Este 0 -- -- 42
2020-09-04 15:00:00 31.7 9 Este 21 Este 0 -- -- 39
2020-09-04 14:00:00 31.7 7 Este 20 Este 0 -- -- 34
2020-09-04 13:00:00 31.8 7 Este 21 Sudeste 0 -- -- 35
2020-09-04 12:00:00 30.4 8 Este 16 Este 0 -- -- 32
2020-09-04 11:00:00 27.1 4 Nordeste 12 Este 0 -- -- 34
2020-09-04 10:00:00 26.2 4 Nordeste 10 Nordeste 0 -- -- 36
2020-09-04 09:00:00 24.4 5 Este 8 Este 0 -- -- 37
2020-09-04 08:00:00 21.3 6 Noroeste 10 Noroeste 0 -- -- 38
2020-09-04 07:00:00 20.7 4 Oeste 13 Noroeste 0 -- -- 44
2020-09-04 06:00:00 21 3 Sudoeste 8 Sur 0 -- -- 42
2020-09-04 05:00:00 21.7 2 Este 11 Noroeste 0 -- -- 47
2020-09-04 04:00:00 21.3 3 Oeste 13 Noroeste 0 -- -- 39
2020-09-04 03:00:00 21.4 2 Noroeste 8 Noroeste 0 -- -- 59
2020-09-04 02:00:00 21.8 0 Calma 9 Oeste 0 -- -- 56
2020-09-04 01:00:00 21.9 0 Calma 6 Oeste 0 -- -- 62
2020-09-04 00:00:00 22.1 3 Sudoeste 9 Noroeste 0 -- -- 64
2020-09-03 23:00:00 22.3 3 Oeste 8 Noroeste 0 -- -- 68
2020-09-03 22:00:00 23 2 Sudeste 5 Noroeste 0 -- -- 67
2020-09-03 21:00:00 23.4 3 Este 4 Nordeste 0 -- -- 65
2020-09-03 20:00:00 24.4 3 Este 5 Nordeste 0 -- -- 62
2020-09-03 19:00:00 25.2 4 Este 13 Este 0 -- -- 59
2020-09-03 18:00:00 27.2 8 Este 16 Sudeste 0 -- -- 53
2020-09-03 17:00:00 28.5 7 Este 19 Este 0 -- -- 49
2020-09-03 16:00:00 30 9 Este 21 Este 0 -- -- 45
2020-09-03 15:00:00 31.2 6 Este 19 Este 0 -- -- 42
2020-09-03 14:00:00 30.5 10 Este 20 Este 0 -- -- 39
2020-09-03 13:00:00 30.6 10 Este 19 Este 0 -- -- 37
2020-09-03 12:00:00 28.5 6 Este 13 Este 0 -- -- 36
2020-09-03 11:00:00 27.4 7 Este 13 Este 0 -- -- 38
2020-09-03 10:00:00 25.1 3 Nordeste 13 Este 0 -- -- 39
2020-09-03 09:00:00 24.3 2 Nordeste 4 Nordeste 0 -- -- 30
2020-09-03 08:00:00 22.1 3 Sur 8 Oeste 0 -- -- 22
2020-09-03 07:00:00 21.6 3 Sudeste 7 Oeste 0 -- -- 30
2020-09-03 06:00:00 21.1 5 Oeste 8 Noroeste 0 -- -- 32
2020-09-03 05:00:00 21.3 3 Este 8 Noroeste 0 -- -- 48
2020-09-03 04:00:00 21.6 3 Sudoeste 9 Noroeste 0 -- -- 49
2020-09-03 03:00:00 20.9 4 Oeste 5 Sudoeste 0 -- -- 57
2020-09-03 02:00:00 21.4 5 Oeste 9 Este 0 -- -- 56
2020-09-03 01:00:00 21.7 5 Noroeste 8 Oeste 0 -- -- 62
2020-09-03 00:00:00 21.8 4 Noroeste 8 Oeste 0 -- -- 64
2020-09-02 23:00:00 21.9 5 Noroeste 8 Noroeste 0 -- -- 64
2020-09-02 22:00:00 21.3 4 Sudoeste 8 Sudoeste 0 -- -- 72
2020-09-02 21:00:00 20.8 4 Noroeste 6 Noroeste 0 -- -- 74
2020-09-02 20:00:00 22 4 Sudeste 9 Este 0 -- -- 70
2020-09-02 19:00:00 24.2 5 Sudeste 12 Este 0 -- -- 62
2020-09-02 18:00:00 26.1 7 Este 15 Este 0 -- -- 55
2020-09-02 17:00:00 27.5 9 Este 18 Este 0 -- -- 51
2020-09-02 16:00:00 29.3 7 Este 21 Sudeste 0 -- -- 48
2020-09-02 15:00:00 30.2 9 Este 19 Este 0 -- -- 43
2020-09-02 14:00:00 30.7 10 Este 21 Este 0 -- -- 40
2020-09-02 13:00:00 30.8 8 Este 22 Este 0 -- -- 35
2020-09-02 12:00:00 29.8 8 Este 16 Este 0 -- -- 32
2020-09-02 11:00:00 29.1 6 Este 13 Este 0 -- -- 23
2020-09-02 10:00:00 27.5 3 Nordeste 9 Este 0 -- -- 23
2020-09-02 09:00:00 24.7 3 Nordeste 6 Este 0 -- -- 21
2020-09-02 08:00:00 20.4 4 Noroeste 8 Sudeste 0 -- -- 26
2020-09-02 07:00:00 22.5 5 Sudeste 9 Sudeste 0 -- -- 24
2020-09-02 06:00:00 21.8 0 Calma 9 Sudoeste 0 -- -- 25
2020-09-02 05:00:00 21.6 0 Calma 5 Oeste 0 -- -- 23
2020-09-02 04:00:00 21.8 5 Noroeste 8 Oeste 0 -- -- 25
2020-09-02 03:00:00 21.6 2 Sudoeste 8 Oeste 0 -- -- 21
2020-09-02 02:00:00 21.6 3 Sudoeste 10 Noroeste 0 -- -- 24
2020-09-02 01:00:00 21.3 5 Oeste 10 Sudoeste 0 -- -- 40
2020-09-02 00:00:00 22.1 3 Sur 9 Oeste 0 -- -- 37
2020-09-01 23:00:00 22.2 8 Sudoeste 10 Sudoeste 0 -- -- 48
2020-09-01 22:00:00 20.1 4 Oeste 7 Noroeste 0 -- -- 58
2020-09-01 21:00:00 19.9 4 Oeste 5 Noroeste 0 -- -- 82
2020-09-01 20:00:00 21 4 Este 7 Este 0 -- -- 79
2020-09-01 19:00:00 23.3 4 Este 13 Sudeste 0 -- -- 69
2020-09-01 18:00:00 24.9 6 Este 18 Este 0 -- -- 64
2020-09-01 17:00:00 26.3 6 Este 18 Este 0 -- -- 59
2020-09-01 16:00:00 25.9 8 Este 20 Este 0 -- -- 60
2020-09-01 15:00:00 26.3 10 Este 21 Este 0 -- -- 61
2020-09-01 14:00:00 26.7 9 Este 20 Este 0 -- -- 58
2020-09-01 13:00:00 25.4 8 Este 17 Este 0 -- -- 60
2020-09-01 12:00:00 25.7 8 Este 21 Este 0 -- -- 54
2020-09-01 11:00:00 24.1 7 Este 16 Nordeste 0 -- -- 50
2020-09-01 10:00:00 21.6 7 Este 12 Este 0 -- -- 57
2020-09-01 09:00:00 17.7 0 Calma 4 Noroeste 0 -- -- 69
2020-09-01 08:00:00 15 3 Oeste 10 Oeste 0 -- -- 79
2020-09-01 07:00:00 14.4 3 Noroeste 4 Noroeste 0 -- -- 79
2020-09-01 06:00:00 14.6 3 Oeste 5 Oeste 0 -- -- 84
2020-09-01 05:00:00 15.3 2 Sudeste 7 Oeste 0 -- -- 83
2020-09-01 04:00:00 15.2 0 Calma 5 Noroeste 0 -- -- 79
2020-09-01 03:00:00 14.7 5 Noroeste 8 Oeste 0 -- -- 84
2020-09-01 02:00:00 14.9 0 Calma 6 Oeste 0 -- -- 88
2020-09-01 01:00:00 15.5 2 Oeste 4 Oeste 0 -- -- 86
2020-09-01 00:00:00 16.1 0 Calma 8 Norte 0 -- -- 84
2020-08-31 23:00:00 16.8 3 Norte 7 Sudeste 0 -- -- 83
2020-08-31 22:00:00 16.7 3 Sudeste 6 Sudeste 0 -- -- 84
2020-08-31 21:00:00 17.4 2 Sur 8 Este 0 -- -- 81
2020-08-31 20:00:00 18.9 0 Calma 10 Sur 0 -- -- 73
2020-08-31 19:00:00 21.3 3 Este 14 Sudeste 0 -- -- 63
2020-08-31 18:00:00 23.2 4 Sudeste 16 Sudeste 0 -- -- 54
2020-08-31 17:00:00 23.8 7 Este 20 Este 0 -- -- 51
2020-08-31 16:00:00 25.3 8 Este 21 Sudeste 0 -- -- 46
2020-08-31 15:00:00 26.6 6 Sudeste 26 Este 0 -- -- 43
2020-08-31 14:00:00 26.3 8 Este 23 Este 0 -- -- 42
2020-08-31 13:00:00 25.1 6 Sudeste 17 Sudeste 0 -- -- 43
2020-08-31 12:00:00 24.2 6 Sur 17 Este 0 -- -- 41
2020-08-31 11:00:00 23.5 5 Este 17 Este 0 -- -- 38
2020-08-31 10:00:00 21.3 7 Nordeste 13 Este 0 -- -- 37
2020-08-31 09:00:00 18.6 5 Nordeste 12 Noroeste 0 -- -- 38
2020-08-31 08:00:00 14.9 2 Sudeste 10 Noroeste 0 -- -- 50
2020-08-31 07:00:00 14.7 4 Noroeste 10 Noroeste 0 -- -- 44
2020-08-31 06:00:00 15 3 Noroeste 13 Noroeste 0 -- -- 39
2020-08-31 05:00:00 15.2 7 Sudoeste 12 Sur 0 -- -- 58
2020-08-31 04:00:00 15.8 7 Noroeste 9 Noroeste 0 -- -- 41
2020-08-31 03:00:00 16.2 4 Sudoeste 12 Sudoeste 0 -- -- 42
2020-08-31 02:00:00 15.5 5 Sudoeste 11 Sudoeste 0 -- -- 54
2020-08-31 01:00:00 15.4 5 Oeste 12 Sudoeste 0 -- -- 60
2020-08-31 00:00:00 15.2 4 Oeste 6 Sudoeste 0 -- -- 83
2020-08-30 23:00:00 15.5 4 Sudoeste 10 Sur 0 -- -- 84
2020-08-30 22:00:00 16.6 2 Sudoeste 8 Sudeste 0 -- -- 79
2020-08-30 21:00:00 17.5 3 Sur 8 Sur 0 -- -- 76
2020-08-30 20:00:00 18.9 4 Sur 8 Sur 0 -- -- 68
2020-08-30 19:00:00 20.9 6 Este 14 Sudeste 0 -- -- 61
2020-08-30 18:00:00 22.9 6 Sudeste 17 Este 0 -- -- 55
2020-08-30 17:00:00 24 6 Sudeste 21 Sudeste 0 -- -- 50
2020-08-30 16:00:00 25.1 5 Sudeste 21 Sudeste 0 -- -- 47
2020-08-30 15:00:00 25.3 7 Sudeste 30 Nordeste 0 -- -- 47
2020-08-30 14:00:00 24 10 Este 26 Nordeste 0 -- -- 42
2020-08-30 13:00:00 23.7 7 Sur 24 Sudeste 0 -- -- 51
2020-08-30 12:00:00 22.9 7 Sudeste 20 Sudeste 0 -- -- 53
2020-08-30 11:00:00 20.4 7 Sur 20 Sur 0 -- -- 63
2020-08-30 10:00:00 18.4 5 Sudeste 15 Este 0 -- -- 71
2020-08-30 09:00:00 17.1 4 Sudeste 14 Sur 0 -- -- 80
2020-08-30 08:00:00 16.2 4 Norte 41 Nordeste 0 -- -- 66
2020-08-30 07:00:00 16.1 20 Norte 49 Nordeste 0 -- -- 68
2020-08-30 06:00:00 15.6 28 Nordeste 48 Nordeste 0 -- -- 66
2020-08-30 05:00:00 15.9 5 Sur 18 Sudeste 0 -- -- 83
2020-08-30 04:00:00 15.8 4 Sur 17 Sudeste 0 -- -- 79
2020-08-30 03:00:00 16 3 Este 12 Sur 0 -- -- 86
2020-08-30 02:00:00 16.4 3 Este 10 Sudoeste 0 -- -- 88
2020-08-30 01:00:00 17.1 4 Sur 12 Sur 0 -- -- 87
2020-08-30 00:00:00 17.9 4 Sur 12 Sudoeste 0 -- -- 78
2020-08-29 23:00:00 19 3 Sudeste 13 Sudoeste 0 -- -- 74
2020-08-29 22:00:00 20.3 7 Sudoeste 17 Noroeste 0 -- -- 63
2020-08-29 21:00:00 21.7 6 Noroeste 44 Nordeste 0 -- -- 43
2020-08-29 20:00:00 22 10 Nordeste 39 Este 0 -- -- 43
2020-08-29 19:00:00 22.5 12 Este 52 Nordeste 0 -- -- 48
2020-08-29 18:00:00 23.8 22 Nordeste 56 Norte 0 -- -- 42
2020-08-29 17:00:00 24.9 29 Nordeste 56 Nordeste 0 -- -- 32
2020-08-29 16:00:00 28.5 10 Este 31 Este 0 -- -- 24
2020-08-29 15:00:00 27.3 10 Sudeste 26 Este 0 -- -- 42
2020-08-29 14:00:00 27.9 12 Sur 34 Nordeste 0 -- -- 26
2020-08-29 13:00:00 28.9 14 Norte 42 Nordeste 0 -- -- 16
2020-08-29 12:00:00 27.7 16 Nordeste 38 Nordeste 0 -- -- 40
2020-08-29 11:00:00 26.2 9 Este 23 Sudoeste 0 -- -- 41
2020-08-29 10:00:00 24.9 7 Este 22 Este 0 -- -- 40
2020-08-29 09:00:00 23.1 9 Este 17 Este 0 -- -- 39
2020-08-29 08:00:00 21.5 3 Norte 14 Sudoeste 0 -- -- 38
2020-08-29 07:00:00 24 10 Sur 33 Noroeste 0 -- -- 29
2020-08-29 06:00:00 27.1 22 Norte 43 Norte 0 -- -- 12
2020-08-29 05:00:00 27.3 25 Noroeste 44 Norte 0 -- -- 11
2020-08-29 04:00:00 28.2 34 Norte 58 Norte 0 -- -- 11
2020-08-29 03:00:00 29.2 34 Norte 53 Norte 0 -- -- 10
2020-08-29 02:00:00 29.4 31 Norte 59 Norte 0 -- -- 9
2020-08-29 01:00:00 29.7 31 Norte 58 Norte 0 -- -- 9
2020-08-29 00:00:00 29.6 33 Norte 59 Norte 0 -- -- 9
2020-08-28 23:00:00 29.9 29 Norte 56 Noroeste 0 -- -- 9
2020-08-28 22:00:00 30.6 28 Norte 53 Noroeste 0 -- -- 9
2020-08-28 21:00:00 31.8 20 Norte 39 Norte 0 -- -- 10
2020-08-28 20:00:00 32.5 17 Norte 36 Norte 0 -- -- 10
2020-08-28 19:00:00 33.5 19 Norte 42 Nordeste 0 -- -- 11
2020-08-28 18:00:00 34.7 26 Nordeste 43 Nordeste 0 -- -- 11
2020-08-28 17:00:00 35.5 21 Nordeste 39 Nordeste 0 -- -- 11
2020-08-28 16:00:00 36.4 16 Nordeste 44 Este 0 -- -- 12
2020-08-28 15:00:00 35.6 26 Nordeste 47 Nordeste 0 -- -- 13
2020-08-28 14:00:00 36.1 15 Nordeste 45 Este 0 -- -- 14
2020-08-28 13:00:00 35.6 18 Nordeste 49 Nordeste 0 -- -- 16
2020-08-28 12:00:00 35 23 Nordeste 65 Nordeste 0 -- -- 17
2020-08-28 11:00:00 33.6 44 Norte 79 Nordeste 0 -- -- 16
2020-08-28 10:00:00 32.9 40 Nordeste 78 Nordeste 0 -- -- 16
2020-08-28 09:00:00 31.8 49 Nordeste 84 Nordeste 0 -- -- 17
2020-08-28 08:00:00 31.6 55 Nordeste 86 Nordeste 0 -- -- 18
2020-08-28 07:00:00 31.7 57 Nordeste 89 Nordeste 0 -- -- 17
2020-08-28 06:00:00 31.5 54 Nordeste 87 Nordeste 0 -- -- 18
2020-08-28 05:00:00 32.1 50 Nordeste 84 Nordeste 0 -- -- 17
2020-08-28 04:00:00 32.3 48 Nordeste 76 Nordeste 0 -- -- 17
2020-08-28 03:00:00 32.1 44 Nordeste 77 Nordeste 0 -- -- 16
2020-08-28 02:00:00 32.1 52 Nordeste 73 Nordeste 0 -- -- 16
2020-08-28 01:00:00 32.6 42 Nordeste 69 Nordeste 0 -- -- 16
2020-08-28 00:00:00 32.9 41 Nordeste 65 Nordeste 0 -- -- 17
2020-08-27 23:00:00 33.1 35 Nordeste 58 Nordeste 0 -- -- 18
2020-08-27 22:00:00 33 41 Nordeste 64 Nordeste 0 -- -- 19
2020-08-27 21:00:00 33.3 33 Nordeste 60 Nordeste 0 -- -- 18
2020-08-27 20:00:00 33.5 33 Nordeste 54 Nordeste 0 -- -- 19
2020-08-27 19:00:00 34 31 Nordeste 57 Nordeste 0 -- -- 19
2020-08-27 18:00:00 35.2 26 Nordeste 56 Nordeste 0 -- -- 18
2020-08-27 17:00:00 35.8 35 Nordeste 59 Nordeste 0 -- -- 16
2020-08-27 16:00:00 37 30 Nordeste 63 Nordeste 0 -- -- 14
2020-08-27 15:00:00 37.2 33 Nordeste 73 Norte 0 -- -- 14
2020-08-27 14:00:00 37.5 29 Nordeste 47 Nordeste 0 -- -- 15
2020-08-27 13:00:00 37.4 28 Nordeste 54 Este 0 -- -- 16
2020-08-27 12:00:00 36.8 28 Nordeste 53 Nordeste 0 -- -- 16
2020-08-27 11:00:00 35.7 35 Nordeste 53 Nordeste 0 -- -- 20
2020-08-27 10:00:00 34.6 32 Nordeste 55 Norte 0 -- -- 23
2020-08-27 09:00:00 33.6 32 Nordeste 45 Nordeste 0 -- -- 22
2020-08-27 08:00:00 31.6 9 Norte 22 Nordeste 0 -- -- 25
2020-08-27 07:00:00 30.2 3 Oeste 6 Sudoeste 0 -- -- 31
2020-08-27 06:00:00 30.7 5 Sudoeste 6 Sudoeste 0 -- -- 31
2020-08-27 05:00:00 30.9 4 Sudoeste 7 Noroeste 0 -- -- 31
2020-08-27 04:00:00 30.6 4 Oeste 5 Oeste 0 -- -- 31
2020-08-27 03:00:00 31.5 0 Calma 6 Sudoeste 0 -- -- 29
2020-08-27 02:00:00 31.6 5 Oeste 8 Oeste 0 -- -- 29
2020-08-27 01:00:00 31.3 6 Noroeste 9 Noroeste 0 -- -- 30
2020-08-27 00:00:00 31.6 5 Sudoeste 11 Oeste 0 -- -- 30
2020-08-26 23:00:00 31.6 6 Sudoeste 8 Oeste 0 -- -- 30
2020-08-26 22:00:00 31.2 3 Oeste 6 Sudoeste 0 -- -- 32
2020-08-26 21:00:00 32.5 0 Calma 10 Sudoeste 0 -- -- 30
2020-08-26 20:00:00 33.9 4 Oeste 12 Sur 0 -- -- 29
2020-08-26 19:00:00 35.2 4 Sudoeste 14 Sur 0 -- -- 28
2020-08-26 18:00:00 36.6 5 Sur 18 Sudeste 0 -- -- 26
2020-08-26 17:00:00 37.3 4 Sudeste 22 Sur 0 -- -- 25
2020-08-26 16:00:00 37.1 7 Sur 25 Sudeste 0 -- -- 26
2020-08-26 15:00:00 36.5 10 Sur 25 Sudeste 0 -- -- 26
2020-08-26 14:00:00 37.5 7 Sudeste 23 Este 0 -- -- 25
2020-08-26 13:00:00 37.7 10 Este 21 Este 0 -- -- 26
2020-08-26 12:00:00 36 7 Este 15 Este 0 -- -- 27
2020-08-26 11:00:00 34.6 6 Este 13 Este 0 -- -- 27
2020-08-26 10:00:00 32.4 4 Nordeste 14 Sudeste 0 -- -- 28
2020-08-26 09:00:00 30.9 2 Este 16 Este 0 -- -- 28
2020-08-26 08:00:00 31.7 12 Este 37 Este 0 -- -- 25
2020-08-26 07:00:00 32.2 21 Este 48 Nordeste 0 -- -- 21
2020-08-26 06:00:00 32.5 19 Nordeste 56 Este 0 -- -- 17
2020-08-26 05:00:00 32.6 24 Este 43 Este 0 -- -- 15
2020-08-26 04:00:00 32.4 8 Nordeste 35 Nordeste 0 -- -- 17
2020-08-26 03:00:00 34.1 14 Nordeste 38 Este 0 -- -- 14
2020-08-26 02:00:00 33.7 5 Nordeste 23 Nordeste 0 -- -- 15
2020-08-26 01:00:00 34.5 12 Nordeste 26 Nordeste 0 -- -- 14
2020-08-26 00:00:00 32.6 4 Nordeste 12 Nordeste 0 -- -- 15
2020-08-25 23:00:00 32 8 Noroeste 10 Noroeste 0 -- -- 14
2020-08-25 22:00:00 32.1 6 Noroeste 12 Norte 0 -- -- 14
2020-08-25 21:00:00 32.6 5 Noroeste 8 Oeste 0 -- -- 14
2020-08-25 20:00:00 34.9 3 Oeste 7 Este 0 -- -- 12
2020-08-25 19:00:00 36.2 4 Este 12 Este 0 -- -- 13
2020-08-25 18:00:00 37.5 6 Este 20 Sudeste 0 -- -- 14
2020-08-25 17:00:00 37.9 3 Este 19 Este 0 -- -- 15
2020-08-25 16:00:00 37.9 5 Sudeste 17 Este 0 -- -- 19
2020-08-25 15:00:00 37.2 6 Sudeste 19 Este 0 -- -- 20
2020-08-25 14:00:00 35.6 4 Este 17 Este 0 -- -- 21
2020-08-25 13:00:00 37 6 Este 15 Este 0 -- -- 16
2020-08-25 12:00:00 37.7 5 Este 13 Sudeste 0 -- -- 19
2020-08-25 11:00:00 33.8 5 Noroeste 19 Sudoeste 0 -- -- 18
2020-08-25 10:00:00 32.1 12 Oeste 18 Oeste 0 -- -- 20
2020-08-25 09:00:00 30.5 4 Sur 19 Sudeste 0 -- -- 22
2020-08-25 08:00:00 28.9 10 Sudoeste 14 Sudoeste 0 -- -- 23
2020-08-25 07:00:00 28.9 3 Sudoeste 12 Noroeste 0 -- -- 22
2020-08-25 06:00:00 27.9 5 Sur 11 Sur 0 -- -- 21
2020-08-25 05:00:00 28.5 5 Sur 9 Sur 0 -- -- 20
2020-08-25 04:00:00 29 2 Sudoeste 8 Sudoeste 0 -- -- 22
2020-08-25 03:00:00 30.1 2 Sudeste 10 Oeste 0 -- -- 21
2020-08-25 02:00:00 29.3 4 Noroeste 6 Noroeste 0 -- -- 21
2020-08-25 01:00:00 30.3 0 Calma 6 Oeste 0 -- -- 20
2020-08-25 00:00:00 30.4 4 Sudoeste 6 Sudoeste 0 -- -- 20
2020-08-24 23:00:00 30.6 4 Oeste 10 Noroeste 0 -- -- 19
2020-08-24 22:00:00 30.4 6 Oeste 8 Oeste 0 -- -- 19
2020-08-24 21:00:00 31.2 3 Sudoeste 10 Oeste 0 -- -- 20
2020-08-24 20:00:00 32.5 0 Calma 7 Este 0 -- -- 17
2020-08-24 19:00:00 34.1 3 Este 13 Este 0 -- -- 18
2020-08-24 18:00:00 36.5 6 Este 18 Este 0 -- -- 17
2020-08-24 17:00:00 37.9 6 Este 18 Este 0 -- -- 15
2020-08-24 16:00:00 37.6 5 Este 22 Sudeste 0 -- -- 14
2020-08-24 15:00:00 37.6 7 Sudeste 22 Este 0 -- -- 14
2020-08-24 14:00:00 37.7 13 Este 28 Nordeste 0 -- -- 12
2020-08-24 13:00:00 38.9 7 Este 22 Sudeste 0 -- -- 12
2020-08-24 12:00:00 36.3 6 Este 17 Este 0 -- -- 11
2020-08-24 11:00:00 34.6 5 Este 13 Este 0 -- -- 11
2020-08-24 10:00:00 34.4 6 Este 18 Norte 0 -- -- 13
2020-08-24 09:00:00 31.4 5 Norte 19 Oeste 0 -- -- 12
2020-08-24 08:00:00 27.9 8 Sur 14 Sur 0 -- -- 15
2020-08-24 07:00:00 29.6 4 Nordeste 20 Este 0 -- -- 13
2020-08-24 06:00:00 29.7 6 Este 19 Nordeste 0 -- -- 12
2020-08-24 05:00:00 28.2 8 Este 20 Este 0 -- -- 14
2020-08-24 04:00:00 28.7 4 Sur 21 Nordeste 0 -- -- 14
2020-08-24 03:00:00 28.8 3 Sudoeste 9 Noroeste 0 -- -- 15
2020-08-24 02:00:00 28.9 2 Nordeste 11 Nordeste 0 -- -- 15
2020-08-24 01:00:00 29.9 4 Sudoeste 15 Nordeste 0 -- -- 14
2020-08-24 00:00:00 30.8 4 Sur 15 Nordeste 0 -- -- 13
2020-08-23 23:00:00 31.6 5 Norte 20 Norte 0 -- -- 12
2020-08-23 22:00:00 32.1 9 Norte 39 Norte 0 -- -- 12
2020-08-23 21:00:00 32 19 Norte 36 Norte 0 -- -- 12
2020-08-23 20:00:00 32.4 20 Norte 42 Nordeste 0 -- -- 11
2020-08-23 19:00:00 33.1 22 Nordeste 42 Nordeste 0 -- -- 12
2020-08-23 18:00:00 34.2 21 Nordeste 43 Nordeste 0 -- -- 12
2020-08-23 17:00:00 34.8 23 Nordeste 42 Nordeste 0 -- -- 12
2020-08-23 16:00:00 35.7 22 Nordeste 45 Nordeste 0 -- -- 12
2020-08-23 15:00:00 35.8 26 Nordeste 48 Nordeste 0 -- -- 12
2020-08-23 14:00:00 35.6 24 Nordeste 56 Nordeste 0 -- -- 12
2020-08-23 13:00:00 35.2 32 Nordeste 54 Nordeste 0 -- -- 13
2020-08-23 12:00:00 35.7 23 Nordeste 51 Nordeste 0 -- -- 12
2020-08-23 11:00:00 34.5 31 Nordeste 60 Nordeste 0 -- -- 13
2020-08-23 10:00:00 33.4 32 Nordeste 61 Nordeste 0 -- -- 13
2020-08-23 09:00:00 32.3 28 Nordeste 59 Nordeste 0 -- -- 14
2020-08-23 08:00:00 31.1 22 Nordeste 55 Norte 0 -- -- 14
2020-08-23 07:00:00 30.8 20 Nordeste 63 Nordeste 0 -- -- 15
2020-08-23 06:00:00 30.3 25 Nordeste 75 Nordeste 0 -- -- 16
2020-08-23 05:00:00 30.5 47 Nordeste 77 Nordeste 0 -- -- 15
2020-08-23 04:00:00 30.6 52 Nordeste 84 Nordeste 0 -- -- 15
2020-08-23 03:00:00 31.1 51 Nordeste 83 Nordeste 0 -- -- 14
2020-08-23 02:00:00 31.4 44 Nordeste 77 Nordeste 0 -- -- 14
2020-08-23 01:00:00 31.1 50 Nordeste 82 Nordeste 0 -- -- 14
2020-08-23 00:00:00 31.4 48 Nordeste 81 Nordeste 0 -- -- 14